Time;durP1;ratioP1;P1;durP2;ratioP2;P2;SDS_P1;SDS_P2;PMS_P1;PMS_P2;Temp;Humidity;BMP_temperature;BMP_pressure;BME280_temperature;BME280_humidity;BME280_pressure;Samples;Min_cycle;Max_cycle;Signal;HPM_P1;HPM_P2
2024/04/01 00:01:06;;;;;;;10.20;7.03;;;;;;;21.14;47.73;99055.95;2310404;76;49793;-82
2024/04/01 00:04:08;;;;;;;9.38;6.62;;;;;;;21.14;47.71;99054.06;2342479;75;51472;-82
2024/04/01 00:07:10;;;;;;;12.65;6.97;;;;;;;21.15;47.70;99052.22;2342771;76;51621;-82
2024/04/01 00:10:12;;;;;;;11.50;6.67;;;;;;;21.13;47.67;99064.55;2299380;76;49612;-82
2024/04/01 00:13:18;;;;;;;15.18;7.65;;;;;;;21.14;47.69;99076.12;2343049;76;50399;-81
2024/04/01 00:16:20;;;;;;;11.95;7.53;;;;;;;21.14;47.67;99073.43;2342851;75;50432;-81
2024/04/01 00:19:23;;;;;;;10.28;7.03;;;;;;;21.13;47.66;99061.86;2342848;76;50121;-81
2024/04/01 00:22:25;;;;;;;11.40;6.80;;;;;;;21.14;47.65;99058.10;2342809;76;50742;-80
2024/04/01 00:25:27;;;;;;;13.20;7.78;;;;;;;21.13;47.67;99046.25;2310870;76;50076;-83
2024/04/01 00:28:29;;;;;;;14.10;7.03;;;;;;;21.13;47.69;99044.38;2343322;76;51682;-83
2024/04/01 00:31:31;;;;;;;10.55;7.37;;;;;;;21.13;47.72;99032.80;2337132;76;50919;-81
2024/04/01 00:34:34;;;;;;;11.80;7.05;;;;;;;21.12;47.77;99032.00;2310638;75;51193;-82
2024/04/01 00:37:36;;;;;;;8.30;6.25;;;;;;;21.12;47.75;99019.89;2310686;76;51558;-82
2024/04/01 00:40:38;;;;;;;12.78;7.20;;;;;;;21.13;47.78;99020.70;2342625;76;51558;-83
2024/04/01 00:43:40;;;;;;;11.28;7.05;;;;;;;21.12;47.82;99017.70;2342540;75;51465;-82
2024/04/01 00:46:43;;;;;;;13.62;7.15;;;;;;;21.12;47.80;99008.30;2342144;76;51550;-82
2024/04/01 00:49:46;;;;;;;11.35;7.03;;;;;;;21.12;47.81;99003.76;2310443;76;51072;-81
2024/04/01 00:52:48;;;;;;;12.55;7.62;;;;;;;21.13;47.83;98995.16;2311602;76;50771;-81
2024/04/01 00:55:50;;;;;;;10.68;6.90;;;;;;;21.12;47.88;98990.81;2283512;77;51536;-81
2024/04/01 00:58:53;;;;;;;11.63;7.20;;;;;;;21.12;47.84;98985.44;2250085;78;50152;-82
2024/04/01 01:01:55;;;;;;;13.72;7.55;;;;;;;21.12;47.83;98984.09;2283757;78;50250;-83
2024/04/01 01:04:57;;;;;;;10.53;6.85;;;;;;;21.10;47.82;98973.05;2283710;77;51431;-81
2024/04/01 01:07:59;;;;;;;10.95;7.58;;;;;;;21.10;47.77;98981.13;2283434;78;51496;-82
2024/04/01 01:11:04;;;;;;;14.10;7.37;;;;;;;21.09;47.77;98982.19;2283272;76;51495;-82
2024/04/01 01:14:06;;;;;;;11.78;7.47;;;;;;;21.10;47.76;98995.92;2283474;77;22330;-81
2024/04/01 01:17:08;;;;;;;11.75;7.30;;;;;;;21.11;47.74;98996.73;2275764;77;51532;-82
2024/04/01 01:20:13;;;;;;;11.80;7.45;;;;;;;21.12;47.75;98996.19;2283414;78;50646;-82
2024/04/01 01:23:15;;;;;;;14.70;7.60;;;;;;;21.10;47.80;99005.33;2250597;78;52598;-82
2024/04/01 01:26:18;;;;;;;13.58;7.25;;;;;;;21.09;47.80;99010.94;2283250;77;50975;-82
2024/04/01 01:29:21;;;;;;;9.93;6.50;;;;;;;21.09;47.84;99004.21;2283467;78;50746;-82
2024/04/01 01:32:24;;;;;;;11.63;7.60;;;;;;;21.09;47.82;99010.43;2283454;78;50945;-82
2024/04/01 01:35:27;;;;;;;11.90;6.92;;;;;;;21.10;47.81;99012.05;2275593;77;51613;-82
2024/04/01 01:38:30;;;;;;;12.80;7.40;;;;;;;21.09;47.83;98995.64;2250425;78;49957;-81
2024/04/01 01:41:32;;;;;;;10.70;7.12;;;;;;;21.08;47.81;98993.98;2283492;78;50302;-81
2024/04/01 01:44:34;;;;;;;11.70;6.80;;;;;;;21.09;47.78;98990.77;2283478;77;50398;-81
2024/04/01 01:47:36;;;;;;;10.68;6.72;;;;;;;21.09;47.76;98988.92;2250412;78;51504;-81
2024/04/01 01:50:39;;;;;;;11.73;6.78;;;;;;;21.09;47.77;98980.84;2250654;78;51630;-81
2024/04/01 01:53:41;;;;;;;13.35;7.12;;;;;;;21.08;47.76;98980.54;2264457;76;49984;-82
2024/04/01 01:56:43;;;;;;;11.73;6.95;;;;;;;21.09;47.70;98972.78;2297423;77;50296;-81
2024/04/01 01:59:45;;;;;;;12.43;6.97;;;;;;;21.09;47.67;98973.28;2305694;77;50780;-81
2024/04/01 02:02:47;;;;;;;12.25;7.00;;;;;;;21.09;47.68;98971.44;2247492;77;51079;-80
2024/04/01 02:05:51;;;;;;;8.55;6.33;;;;;;;21.09;47.64;98973.28;2305585;76;51638;-81
2024/04/01 02:08:53;;;;;;;14.10;7.15;;;;;;;21.08;47.65;98981.08;2305450;77;50441;-82
2024/04/01 02:11:55;;;;;;;14.58;6.92;;;;;;;21.07;47.65;98974.89;2271895;77;50666;-81
2024/04/01 02:14:57;;;;;;;11.38;6.97;;;;;;;21.08;47.70;98974.35;2305633;76;51483;-81
2024/04/01 02:18:00;;;;;;;13.20;7.12;;;;;;;21.08;47.68;98972.47;2272138;77;50544;-81
2024/04/01 02:21:03;;;;;;;11.10;7.20;;;;;;;21.08;47.68;98976.51;2272287;77;49552;-81
2024/04/01 02:24:06;;;;;;;12.78;7.47;;;;;;;21.08;47.73;98959.03;2305574;76;51499;-81
2024/04/01 02:27:11;;;;;;;11.70;6.83;;;;;;;21.10;47.76;98956.11;2297473;77;51180;-82
2024/04/01 02:30:14;;;;;;;11.57;6.60;;;;;;;21.10;47.76;98960.14;2272217;77;49723;-82
2024/04/01 02:33:16;;;;;;;12.13;6.60;;;;;;;21.09;47.74;98952.61;2271959;77;48928;-82
2024/04/01 02:36:19;;;;;;;13.10;6.97;;;;;;;21.11;47.75;98955.04;2305384;76;50736;-81
2024/04/01 02:39:22;;;;;;;11.85;6.60;;;;;;;21.09;47.70;98953.95;2305811;77;51005;-82
2024/04/01 02:42:24;;;;;;;12.45;6.92;;;;;;;21.10;47.67;98961.48;2272036;77;51547;-81
2024/04/01 02:45:28;;;;;;;10.50;6.22;;;;;;;21.09;47.63;98952.61;2271770;77;51287;-80
2024/04/01 02:48:30;;;;;;;9.25;6.70;;;;;;;21.10;47.60;98951.54;2297923;77;51824;-81
2024/04/01 02:51:32;;;;;;;11.15;6.58;;;;;;;21.10;47.57;98958.80;2305732;77;51680;-81
2024/04/01 02:54:35;;;;;;;11.20;6.78;;;;;;;21.09;47.58;98951.27;2272406;76;49643;-82
2024/04/01 02:57:37;;;;;;;11.57;6.85;;;;;;;21.09;47.56;98964.71;2271632;77;50079;-81
2024/04/01 03:00:39;;;;;;;9.30;6.35;;;;;;;21.09;47.56;98955.80;2305704;77;50706;-81
2024/04/01 03:03:41;;;;;;;8.95;5.97;;;;;;;21.09;47.52;98949.08;2305835;76;51478;-81
2024/04/01 03:06:44;;;;;;;10.60;6.45;;;;;;;21.09;47.54;98953.11;2305556;77;51524;-81
2024/04/01 03:09:46;;;;;;;11.75;6.67;;;;;;;21.09;47.52;98952.61;2272262;77;49615;-82
2024/04/01 03:12:48;;;;;;;9.43;6.62;;;;;;;21.08;47.51;98944.23;2272130;77;50690;-82
2024/04/01 03:15:50;;;;;;;11.28;6.05;;;;;;;21.08;47.55;98948.80;2305599;76;50241;-82
2024/04/01 03:18:53;;;;;;;12.23;6.20;;;;;;;21.08;47.57;98945.58;2271986;77;49394;-82
2024/04/01 03:21:55;;;;;;;9.18;5.97;;;;;;;21.09;47.60;98933.78;2305716;77;50729;-81
2024/04/01 03:24:57;;;;;;;11.65;6.85;;;;;;;21.08;47.62;98940.20;2272088;77;51402;-81
2024/04/01 03:27:59;;;;;;;11.05;6.10;;;;;;;21.10;47.54;98935.94;2305901;77;51480;-82
2024/04/01 03:31:05;;;;;;;12.28;6.58;;;;;;;21.08;47.59;98922.72;2306062;77;50706;-81
2024/04/01 03:34:08;;;;;;;11.55;6.50;;;;;;;21.09;47.55;98923.03;2247700;76;49533;-81
2024/04/01 03:37:10;;;;;;;9.70;6.35;;;;;;;21.08;47.59;98918.69;2272224;77;50633;-81
2024/04/01 03:40:12;;;;;;;12.85;6.60;;;;;;;21.08;47.53;98916.00;2305859;77;50699;-81
2024/04/01 03:43:15;;;;;;;11.22;6.33;;;;;;;21.08;47.52;98903.89;2272087;77;49557;-82
2024/04/01 03:46:19;;;;;;;10.93;6.05;;;;;;;21.06;47.50;98896.59;2305550;76;50535;-81
2024/04/01 03:49:21;;;;;;;9.85;6.42;;;;;;;21.07;47.49;98898.24;2305922;75;22212;-82
2024/04/01 03:52:23;;;;;;;9.68;6.60;;;;;;;21.07;47.44;98892.87;2272100;77;52416;-82
2024/04/01 03:55:25;;;;;;;13.75;6.85;;;;;;;21.07;47.42;98888.83;2314160;75;52392;-81
2024/04/01 03:58:28;;;;;;;10.10;6.15;;;;;;;21.08;47.42;98883.73;2291069;76;51451;-81
2024/04/01 04:01:31;;;;;;;10.35;6.00;;;;;;;21.08;47.48;98878.88;2315380;76;50401;-82
2024/04/01 04:04:34;;;;;;;10.38;6.08;;;;;;;21.09;47.45;98877.81;2317011;76;50827;-81
2024/04/01 04:07:36;;;;;;;11.12;6.28;;;;;;;21.09;47.45;98874.62;2284295;76;51049;-82
2024/04/01 04:10:39;;;;;;;11.73;6.10;;;;;;;21.09;47.45;98867.05;2315430;76;51478;-81
2024/04/01 04:13:41;;;;;;;13.30;6.12;;;;;;;21.09;47.42;98858.98;2315297;76;51327;-81
2024/04/01 04:16:43;;;;;;;13.30;6.85;;;;;;;21.09;47.39;98845.55;2315093;76;50304;-80
2024/04/01 04:19:46;;;;;;;16.12;5.78;;;;;;;21.08;47.40;98850.11;2315409;76;51760;-82
2024/04/01 04:22:48;;;;;;;12.47;6.58;;;;;;;21.09;47.36;98838.81;2291078;76;51093;-80
2024/04/01 04:25:50;;;;;;;14.05;6.33;;;;;;;21.09;47.36;98839.66;2290327;76;51372;-81
2024/04/01 04:28:52;;;;;;;12.80;6.53;;;;;;;21.08;47.36;98829.95;2291082;76;51455;-82
2024/04/01 04:31:55;;;;;;;9.73;5.95;;;;;;;21.08;47.34;98833.98;2291056;76;51000;-81
2024/04/01 04:34:57;;;;;;;11.18;6.58;;;;;;;21.08;47.35;98830.48;2315322;76;50457;-81
2024/04/01 04:37:59;;;;;;;8.88;5.80;;;;;;;21.08;47.33;98829.95;2315364;76;50691;-80
2024/04/01 04:41:02;;;;;;;9.88;6.35;;;;;;;21.09;47.32;98834.78;2315461;76;51449;-82
2024/04/01 04:44:05;;;;;;;11.65;6.17;;;;;;;21.08;47.33;98846.61;2315424;76;50742;-82
2024/04/01 04:47:07;;;;;;;9.48;5.50;;;;;;;21.08;47.34;98848.77;2284178;76;50982;-82
2024/04/01 04:50:11;;;;;;;12.37;6.15;;;;;;;21.08;47.34;98856.02;2315292;76;51497;-82
2024/04/01 04:53:13;;;;;;;10.20;6.22;;;;;;;21.07;47.34;98852.53;2315216;76;51001;-81
2024/04/01 04:56:16;;;;;;;8.60;5.53;;;;;;;21.09;47.32;98861.17;2309593;76;50076;-83
2024/04/01 04:59:18;;;;;;;12.28;6.15;;;;;;;21.08;47.38;98861.41;2342012;76;51448;-81
2024/04/01 05:02:20;;;;;;;10.13;5.83;;;;;;;21.08;47.38;98862.75;2341875;76;51582;-80
2024/04/01 05:05:23;;;;;;;9.88;6.40;;;;;;;21.07;47.40;98863.28;2341653;75;51588;-81
2024/04/01 05:08:25;;;;;;;11.22;5.90;;;;;;;21.08;47.36;98865.44;2342170;76;50820;-81
2024/04/01 05:11:28;;;;;;;11.55;6.00;;;;;;;21.08;47.36;98856.02;2309859;76;49720;-82
2024/04/01 05:14:30;;;;;;;9.93;5.72;;;;;;;21.07;47.35;98845.80;2336289;75;51495;-80
2024/04/01 05:17:33;;;;;;;9.73;5.92;;;;;;;21.08;47.35;98847.95;2341638;76;51507;-81
2024/04/01 05:20:36;;;;;;;14.25;6.25;;;;;;;21.07;47.34;98835.05;2298247;76;50934;-82
2024/04/01 05:23:38;;;;;;;11.90;5.87;;;;;;;21.06;47.31;98828.02;2341934;76;50792;-82
2024/04/01 05:26:41;;;;;;;8.15;5.35;;;;;;;21.06;47.31;98821.30;2341812;76;51392;-81
2024/04/01 05:29:43;;;;;;;11.93;5.78;;;;;;;21.06;47.36;98811.89;2341980;76;50906;-81
2024/04/01 05:32:45;;;;;;;11.65;6.20;;;;;;;21.07;47.42;98805.47;2341660;76;50392;-81
2024/04/01 05:35:48;;;;;;;11.33;6.17;;;;;;;21.07;47.50;98805.47;2309492;76;51091;-82
2024/04/01 05:38:50;;;;;;;12.00;6.20;;;;;;;21.06;47.45;98802.47;2342001;76;51458;-81
2024/04/01 05:41:52;;;;;;;10.35;5.22;;;;;;;21.07;47.41;98789.33;2341846;76;50236;-80
2024/04/01 05:44:55;;;;;;;8.98;5.70;;;;;;;21.06;47.40;98771.55;2309640;76;49470;-82
2024/04/01 05:47:57;;;;;;;9.93;5.87;;;;;;;21.06;47.39;98764.83;2341697;76;50713;-81
2024/04/01 05:50:59;;;;;;;11.53;6.03;;;;;;;21.07;47.42;98765.66;2341856;76;51310;-82
2024/04/01 05:54:02;;;;;;;11.78;5.90;;;;;;;21.06;47.44;98763.48;2341775;75;50430;-79
2024/04/01 05:57:04;;;;;;;12.80;5.75;;;;;;;21.08;47.44;98769.97;2342169;76;50780;-82
2024/04/01 06:00:08;;;;;;;12.37;5.70;;;;;;;21.06;47.44;98771.55;2310176;76;50108;-80
2024/04/01 06:03:10;;;;;;;8.40;5.50;;;;;;;21.07;47.44;98785.84;2336629;75;51544;-80
2024/04/01 06:06:12;;;;;;;9.50;5.92;;;;;;;21.07;47.46;98789.33;2342163;75;51525;-81
2024/04/01 06:09:15;;;;;;;11.83;6.17;;;;;;;21.07;47.45;98796.59;2310598;76;49616;-81
2024/04/01 06:12:17;;;;;;;12.33;6.35;;;;;;;21.06;47.44;98803.82;2342175;76;52322;-81
2024/04/01 06:15:19;;;;;;;11.30;5.97;;;;;;;21.07;47.42;98803.31;2341991;75;50727;-82
2024/04/01 06:18:22;;;;;;;10.53;6.08;;;;;;;21.08;47.42;98807.62;2342413;76;51481;-81
2024/04/01 06:21:25;;;;;;;10.15;5.87;;;;;;;21.06;47.43;98810.54;2342269;76;50756;-81
2024/04/01 06:24:27;;;;;;;10.18;5.65;;;;;;;21.06;47.43;98809.20;2309888;75;49298;-81
2024/04/01 06:27:29;;;;;;;12.05;6.00;;;;;;;21.07;47.39;98814.88;2341866;76;50698;-81
2024/04/01 06:30:32;;;;;;;11.60;5.72;;;;;;;21.07;47.40;98807.34;2342193;76;50426;-83
2024/04/01 06:33:34;;;;;;;10.43;5.80;;;;;;;21.07;47.39;98791.21;2309996;76;49590;-81
2024/04/01 06:36:37;;;;;;;11.95;5.90;;;;;;;21.07;47.39;98786.64;2336304;75;50341;-82
2024/04/01 06:39:39;;;;;;;10.63;5.78;;;;;;;21.06;47.39;98789.56;2336574;75;52176;-81
2024/04/01 06:42:41;;;;;;;12.15;6.53;;;;;;;21.05;47.42;98776.66;2342263;76;50158;-81
2024/04/01 06:45:54;;;;;;;11.50;6.15;;;;;;;21.06;47.51;98777.46;2341889;75;50262;-82
2024/04/01 06:48:56;;;;;;;9.70;5.65;;;;;;;21.06;47.57;98770.20;2310106;76;51121;-82
2024/04/01 06:51:58;;;;;;;9.75;5.40;;;;;;;21.07;47.56;98759.75;2342177;76;50407;-82
2024/04/01 06:55:00;;;;;;;14.43;5.83;;;;;;;21.06;47.61;98759.45;2341950;75;50418;-81
2024/04/01 06:58:03;;;;;;;11.50;5.70;;;;;;;21.06;47.64;98741.97;2310051;76;51660;-81
2024/04/01 07:01:05;;;;;;;11.45;5.67;;;;;;;21.07;47.60;98753.03;2310259;76;51422;-81
2024/04/01 07:04:07;;;;;;;9.30;5.40;;;;;;;21.07;47.65;98759.75;2342076;75;50265;-82
2024/04/01 07:07:11;;;;;;;13.05;6.10;;;;;;;21.06;47.67;98768.86;2309956;76;50675;-81
2024/04/01 07:10:13;;;;;;;12.53;6.25;;;;;;;21.08;47.57;98765.41;2342211;76;51602;-81
2024/04/01 07:13:15;;;;;;;14.28;6.67;;;;;;;21.08;47.52;98766.75;2310314;76;51585;-82
2024/04/01 07:16:17;;;;;;;13.58;6.03;;;;;;;21.08;47.49;98772.66;2341908;75;51552;-81
2024/04/01 07:19:20;;;;;;;15.55;6.55;;;;;;;21.07;47.48;98766.48;2342223;76;50416;-81
2024/04/01 07:22:22;;;;;;;13.93;5.85;;;;;;;21.08;47.46;98779.38;2309937;76;49610;-82
2024/04/01 07:25:24;;;;;;;14.45;6.47;;;;;;;21.07;47.46;98767.81;2342003;75;50737;-82
2024/04/01 07:28:26;;;;;;;13.32;6.55;;;;;;;21.08;47.47;98782.88;2336628;75;50236;-81
2024/04/01 07:31:28;;;;;;;13.60;6.30;;;;;;;21.08;47.46;98787.45;2342108;76;50847;-82
2024/04/01 07:34:31;;;;;;;15.53;6.15;;;;;;;21.09;47.52;98806.05;2310272;75;51513;-82
2024/04/01 07:37:33;;;;;;;13.00;6.33;;;;;;;21.09;47.57;98791.76;2309869;76;50981;-81
2024/04/01 07:40:35;;;;;;;14.45;6.40;;;;;;;21.09;47.62;98780.50;2336339;76;51799;-81
2024/04/01 07:43:37;;;;;;;12.63;6.33;;;;;;;21.10;47.61;98769.20;2342217;76;50392;-82
2024/04/01 07:46:39;;;;;;;18.20;7.20;;;;;;;21.10;47.55;98759.79;2310290;76;51074;-81
2024/04/01 07:49:41;;;;;;;15.32;6.55;;;;;;;21.10;47.54;98759.79;2342390;76;50831;-82
2024/04/01 07:52:44;;;;;;;12.95;6.78;;;;;;;21.09;47.54;98752.26;2310453;76;51551;-82
2024/04/01 07:55:46;;;;;;;14.10;6.47;;;;;;;21.10;47.51;98731.55;2342077;75;51555;-82
2024/04/01 07:58:48;;;;;;;14.33;6.10;;;;;;;21.09;47.51;98721.33;2336840;75;51426;-82
2024/04/01 08:01:50;;;;;;;15.65;6.37;;;;;;;21.09;47.52;98714.61;2309913;76;51053;-82
2024/04/01 08:04:53;;;;;;;16.45;6.15;;;;;;;21.09;47.51;98719.99;2342296;75;51714;-81
2024/04/01 08:07:55;;;;;;;12.35;5.55;;;;;;;21.10;47.52;98718.91;2336579;75;51217;-82
2024/04/01 08:10:57;;;;;;;12.80;5.67;;;;;;;21.12;47.51;98711.13;2310182;76;51400;-81
2024/04/01 08:13:59;;;;;;;16.93;6.92;;;;;;;21.12;47.50;98711.13;2342202;75;50754;-82
2024/04/01 08:17:02;;;;;;;12.30;5.95;;;;;;;21.10;47.52;98717.57;2342085;76;50708;-82
2024/04/01 08:20:05;;;;;;;11.93;6.12;;;;;;;21.13;47.49;98707.39;2336745;75;50749;-82
2024/04/01 08:23:07;;;;;;;14.40;6.47;;;;;;;21.11;47.58;98713.00;2310454;76;50815;-81
2024/04/01 08:26:09;;;;;;;11.53;6.40;;;;;;;21.12;47.65;98711.96;2309990;76;51044;-82
2024/04/01 08:29:12;;;;;;;16.00;6.20;;;;;;;21.13;47.71;98710.08;2342377;76;50035;-81
2024/04/01 08:32:14;;;;;;;9.10;5.45;;;;;;;21.12;47.75;98693.64;2342077;76;50420;-82
2024/04/01 08:35:16;;;;;;;12.70;5.87;;;;;;;21.12;47.77;98690.95;2298528;76;49580;-81
2024/04/01 08:38:18;;;;;;;15.63;6.53;;;;;;;21.11;47.90;98667.28;2342268;76;50756;-82
2024/04/01 08:41:35;;;;;;;13.70;5.97;;;;;;;21.13;47.99;98672.42;2342293;76;50548;-82
2024/04/01 08:44:38;;;;;;;14.20;6.40;;;;;;;21.13;47.97;98654.95;2342140;75;50291;-81
2024/04/01 08:47:43;;;;;;;13.35;6.50;;;;;;;21.13;47.94;98650.91;2342069;76;51608;-81
2024/04/01 08:50:51;;;;;;;14.58;6.08;;;;;;;21.14;47.92;98640.42;2324928;76;49403;-82
2024/04/01 08:54:03;;;;;;;13.58;6.35;;;;;;;21.13;47.86;98653.06;2342239;75;51542;-82
2024/04/01 08:57:05;;;;;;;14.15;6.30;;;;;;;21.17;47.77;98665.47;2303121;76;50827;-82
2024/04/01 09:00:08;;;;;;;17.48;6.42;;;;;;;21.17;47.68;98677.58;2295866;76;51313;-82
2024/04/01 09:03:10;;;;;;;11.50;5.70;;;;;;;21.16;47.68;98688.88;2329538;76;50661;-82
2024/04/01 09:06:13;;;;;;;13.20;6.10;;;;;;;21.15;47.67;98695.32;2329297;75;51531;-81
2024/04/01 09:09:15;;;;;;;13.05;5.95;;;;;;;21.16;47.69;98684.84;2329615;76;50754;-82
2024/04/01 09:12:17;;;;;;;12.80;6.17;;;;;;;21.17;47.69;98677.58;2329700;76;50710;-82
2024/04/01 09:15:21;;;;;;;14.30;5.72;;;;;;;21.15;47.68;98654.98;2295509;76;50196;-82
2024/04/01 09:18:23;;;;;;;13.32;6.05;;;;;;;21.16;47.67;98669.23;2329768;76;51393;-79
2024/04/01 09:21:25;;;;;;;11.10;6.00;;;;;;;21.17;47.65;98664.97;2329618;76;51928;-82
2024/04/01 09:24:29;;;;;;;16.60;6.37;;;;;;;21.17;47.65;98654.20;2295689;75;49664;-83
2024/04/01 09:27:31;;;;;;;11.73;5.90;;;;;;;21.18;47.73;98646.95;2329528;76;50857;-83
2024/04/01 09:30:33;;;;;;;13.18;5.90;;;;;;;21.19;47.71;98651.25;2329421;76;50688;-82
2024/04/01 09:33:35;;;;;;;12.53;5.65;;;;;;;21.18;47.79;98641.03;2296176;76;50989;-82
2024/04/01 09:36:38;;;;;;;13.28;6.70;;;;;;;21.18;47.82;98640.23;2329389;75;50571;-81
2024/04/01 09:39:41;;;;;;;13.05;6.25;;;;;;;21.17;47.81;98644.80;2295407;76;49744;-82
2024/04/01 09:42:43;;;;;;;10.65;5.72;;;;;;;21.17;47.79;98639.41;2321756;76;52471;-81
2024/04/01 09:45:45;;;;;;;14.73;5.85;;;;;;;21.18;47.81;98626.78;2329602;75;50686;-83
2024/04/01 09:48:47;;;;;;;12.00;5.58;;;;;;;21.18;47.75;98613.33;2295816;76;51182;-81
2024/04/01 09:51:50;;;;;;;12.53;5.70;;;;;;;21.17;47.76;98596.89;2329712;76;50719;-81
2024/04/01 09:54:53;;;;;;;16.30;6.15;;;;;;;21.17;47.74;98571.34;2329643;75;50973;-81
2024/04/01 09:58:07;;;;;;;11.00;5.22;;;;;;;21.18;47.73;98560.34;2337959;76;51525;-82
2024/04/01 10:01:23;;;;;;;12.43;5.90;;;;;;;21.18;47.69;98552.81;2340981;75;50816;-81
2024/04/01 10:04:35;;;;;;;11.22;5.45;;;;;;;21.18;47.70;98548.25;2310239;75;51022;-82
2024/04/01 10:07:57;;;;;;;14.28;5.62;;;;;;;21.20;47.62;98526.48;2342129;76;50430;-82
2024/04/01 10:11:19;;;;;;;12.35;5.45;;;;;;;21.23;47.09;98536.20;2342438;76;51478;-81
2024/04/01 10:14:34;;;;;;;13.32;5.58;;;;;;;21.24;47.20;98529.74;2342308;75;50956;-81
2024/04/01 10:17:54;;;;;;;13.05;5.65;;;;;;;21.28;46.82;98527.38;2342339;76;50675;-82
2024/04/01 10:20:59;;;;;;;12.50;5.22;;;;;;;21.28;46.88;98519.31;2342507;76;51434;-82
2024/04/01 10:24:11;;;;;;;;;;;;;;;21.28;46.91;98533.57;2345099;75;50778;-82
2024/04/01 10:27:43;;;;;;;12.73;5.17;;;;;;;21.29;46.80;98552.66;2341856;76;51554;-82
2024/04/01 10:31:18;;;;;;;12.00;5.03;;;;;;;21.30;46.93;98529.30;2342318;76;51513;-82
2024/04/01 10:34:40;;;;;;;10.67;5.20;;;;;;;21.31;46.95;98521.49;2310805;75;51565;-81
2024/04/01 10:38:06;;;;;;;12.30;4.87;;;;;;;21.31;46.95;98521.49;2342046;76;50783;-81
2024/04/01 10:41:11;;;;;;;12.68;4.78;;;;;;;21.33;47.07;98526.63;2325004;76;49588;-81
2024/04/01 10:44:23;;;;;;;;;;;;;;;21.31;46.88;98507.50;2345035;75;50282;-82
2024/04/01 10:47:46;;;;;;;12.30;5.00;;;;;;;21.31;46.89;98502.66;2342121;76;51508;-82
2024/04/01 10:51:22;;;;;;;12.58;4.35;;;;;;;21.30;46.90;98509.92;2300011;76;49634;-82
2024/04/01 10:54:24;;;;;;;13.93;5.12;;;;;;;21.30;46.81;98504.55;2341008;75;51513;-81
2024/04/01 10:57:35;;;;;;;9.18;4.30;;;;;;;21.30;46.76;98514.50;2332963;76;51439;-81
2024/04/01 11:00:52;;;;;;;12.35;4.78;;;;;;;21.31;46.77;98518.80;2315421;76;52547;-82
2024/04/01 11:04:26;;;;;;;12.90;4.83;;;;;;;21.28;46.73;98522.81;2315122;76;50904;-81
2024/04/01 11:07:50;;;;;;;9.28;4.15;;;;;;;21.28;46.69;98509.36;2315022;76;50821;-82
2024/04/01 11:11:02;;;;;;;8.90;4.53;;;;;;;21.29;46.61;98520.39;2309984;76;50119;-82
2024/04/01 11:14:04;;;;;;;8.85;4.75;;;;;;;21.28;46.70;98522.00;2300347;76;50767;-82
2024/04/01 11:17:07;;;;;;;12.95;5.12;;;;;;;21.27;46.59;98533.30;2315232;76;50266;-83
2024/04/01 11:20:28;;;;;;;10.08;4.60;;;;;;;21.28;46.67;98513.94;2284393;76;51013;-82
2024/04/01 11:23:45;;;;;;;10.08;4.20;;;;;;;21.27;46.74;98520.36;2315454;76;50694;-83
2024/04/01 11:26:54;;;;;;;10.95;4.30;;;;;;;21.27;46.53;98523.05;2315380;76;50983;-82
2024/04/01 11:30:08;;;;;;;11.00;5.00;;;;;;;21.28;46.54;98532.77;2314112;76;51570;-82
2024/04/01 11:33:11;;;;;;;10.98;4.58;;;;;;;21.27;46.51;98537.34;2315444;76;51601;-81
2024/04/01 11:36:13;;;;;;;8.90;4.00;;;;;;;21.28;46.25;98551.59;2290571;76;50066;-81
2024/04/01 11:39:16;;;;;;;11.03;4.30;;;;;;;21.27;46.25;98544.06;2315435;76;51471;-81
2024/04/01 11:42:19;;;;;;;13.30;4.28;;;;;;;21.27;46.24;98553.47;2315424;76;50301;-82
2024/04/01 11:45:23;;;;;;;7.45;4.22;;;;;;;21.26;46.27;98558.55;2291018;76;51706;-83
2024/04/01 11:48:26;;;;;;;12.30;4.75;;;;;;;21.26;46.27;98547.80;2315526;76;51643;-82
2024/04/01 11:51:37;;;;;;;8.38;4.12;;;;;;;21.27;46.42;98536.50;2315698;76;51504;-82
2024/04/01 11:54:39;;;;;;;12.45;4.80;;;;;;;21.27;46.35;98509.59;2315424;76;51668;-82
2024/04/01 11:57:41;;;;;;;11.48;4.05;;;;;;;21.26;46.21;98522.78;2315316;76;51666;-82
2024/04/01 12:00:54;;;;;;;10.28;3.80;;;;;;;21.25;46.26;98532.73;2291050;76;49834;-81
2024/04/01 12:03:56;;;;;;;14.58;3.85;;;;;;;21.27;46.12;98519.02;2316237;76;50467;-81
2024/04/01 12:06:59;;;;;;;12.43;4.05;;;;;;;21.27;46.15;98512.29;2315256;76;50471;-82
2024/04/01 12:10:07;;;;;;;10.25;4.35;;;;;;;21.28;46.28;98523.34;2290144;76;50404;-82
2024/04/01 12:13:09;;;;;;;12.95;4.17;;;;;;;21.29;46.25;98515.55;2317121;76;50767;-81
2024/04/01 12:16:13;;;;;;;7.22;3.30;;;;;;;21.29;46.26;98515.01;2315213;76;50792;-81
2024/04/01 12:19:15;;;;;;;8.88;4.17;;;;;;;21.28;46.26;98513.39;2317043;76;51641;-81
2024/04/01 12:22:17;;;;;;;9.78;4.03;;;;;;;21.29;46.36;98509.63;2317234;76;50315;-81
2024/04/01 12:25:21;;;;;;;6.40;3.70;;;;;;;21.29;46.29;98490.80;2290861;76;49566;-81
2024/04/01 12:28:25;;;;;;;8.15;3.62;;;;;;;21.30;46.41;98494.33;2291161;76;51682;-81
2024/04/01 12:31:28;;;;;;;10.60;3.60;;;;;;;21.30;46.13;98490.29;2315654;76;50483;-81
2024/04/01 12:34:36;;;;;;;8.85;3.75;;;;;;;21.29;46.06;98485.95;2291162;76;50065;-82
2024/04/01 12:37:41;;;;;;;11.05;3.60;;;;;;;21.30;45.93;98491.63;2314366;76;50471;-82
2024/04/01 12:40:43;;;;;;;;;;;;;;;21.29;45.74;98476.55;2316920;76;50324;-81
2024/04/01 12:43:45;;;;;;;11.43;3.33;;;;;;;21.29;45.81;98475.20;2291155;76;49912;-83
2024/04/01 12:46:49;;;;;;;10.58;3.30;;;;;;;21.30;45.81;98478.19;2315315;76;50422;-82
2024/04/01 12:49:51;;;;;;;12.73;3.62;;;;;;;21.29;45.65;98472.51;2315516;76;51549;-82
2024/04/01 12:52:57;;;;;;;7.42;3.45;;;;;;;21.29;45.78;98476.55;2315464;76;50761;-81
2024/04/01 12:56:17;;;;;;;;;;;;;;;21.29;45.63;98485.95;2318121;76;51530;-82
2024/04/01 12:59:48;;;;;;;9.03;3.62;;;;;;;21.29;45.70;98471.16;2331889;76;51608;-82
2024/04/01 13:03:17;;;;;;;7.33;3.60;;;;;;;21.26;46.21;98476.52;2342487;76;50379;-83
2024/04/01 13:06:28;;;;;;;8.95;3.58;;;;;;;21.28;45.86;98469.02;2325426;76;50317;-83
2024/04/01 13:09:40;;;;;;;9.63;3.70;;;;;;;21.28;45.95;98489.73;2297159;76;51000;-81
2024/04/01 13:13:04;;;;;;;8.90;3.40;;;;;;;21.27;45.79;98509.59;2342116;76;51465;-82
2024/04/01 13:16:22;;;;;;;8.93;3.45;;;;;;;21.27;45.89;98513.63;2342214;75;51470;-81
2024/04/01 13:19:39;;;;;;;10.13;3.60;;;;;;;21.24;46.11;98501.50;2324855;76;50673;-82
2024/04/01 13:22:49;;;;;;;6.10;3.15;;;;;;;21.25;45.90;98507.72;2342273;76;51137;-81
2024/04/01 13:25:59;;;;;;;10.75;3.40;;;;;;;21.24;46.02;98509.58;2332104;75;51645;-82
2024/04/01 13:29:01;;;;;;;10.88;3.40;;;;;;;21.23;46.34;98500.43;2336792;75;50562;-81
2024/04/01 13:32:21;;;;;;;8.63;3.33;;;;;;;21.24;46.05;98493.97;2342445;76;50441;-82
2024/04/01 13:35:49;;;;;;;10.20;3.67;;;;;;;21.22;46.24;98486.17;2309507;76;49561;-81
2024/04/01 13:39:21;;;;;;;12.10;3.85;;;;;;;21.21;46.08;98501.20;2342346;76;50756;-82
2024/04/01 13:42:50;;;;;;;9.53;3.17;;;;;;;21.22;46.08;98520.30;2342353;76;50632;-83
2024/04/01 13:46:10;;;;;;;7.90;3.17;;;;;;;21.21;46.18;98528.91;2224608;79;49653;-82
2024/04/01 13:49:35;;;;;;;7.95;3.10;;;;;;;21.22;46.22;98525.68;2249384;79;50784;-82
2024/04/01 13:52:41;;;;;;;8.45;3.40;;;;;;;21.22;46.13;98526.52;2248980;79;50384;-82
2024/04/01 13:55:44;;;;;;;;;;;;;;;21.22;46.35;98521.65;2251907;79;50293;-81
2024/04/01 13:59:02;;;;;;;10.72;3.10;;;;;;;21.21;46.64;98531.59;2235268;78;50825;-80
2024/04/01 14:02:29;;;;;;;7.85;3.47;;;;;;;21.22;46.52;98529.20;2200368;80;51512;-81
2024/04/01 14:05:53;;;;;;;9.63;3.02;;;;;;;21.24;47.00;98532.97;2176256;80;51026;-81
2024/04/01 14:09:07;;;;;;;5.67;2.98;;;;;;;21.24;47.07;98524.91;2200110;80;50463;-81
2024/04/01 14:12:47;;;;;;;7.97;2.98;;;;;;;21.25;47.13;98538.65;2176274;80;52445;-81
2024/04/01 14:16:02;;;;;;;9.60;3.20;;;;;;;21.29;46.71;98534.38;2200138;80;50836;-82
2024/04/01 14:19:10;;;;;;;10.27;3.53;;;;;;;21.30;46.45;98545.44;2200642;80;51259;-82
2024/04/01 14:22:12;;;;;;;6.05;2.67;;;;;;;21.30;46.72;98548.13;2209433;77;51365;-81
2024/04/01 14:25:15;;;;;;;6.42;2.98;;;;;;;21.32;46.34;98562.11;2287449;77;51459;-81
2024/04/01 14:28:17;;;;;;;10.58;3.10;;;;;;;21.29;46.60;98554.02;2279832;77;50608;-82